sensor_id;sensor_type;location;lat;lon;timestamp;temperature;humidity
40289;DHT22;28991;52.028;5.526;2022-07-12T00:00:52;23.00;56.50
40289;DHT22;28991;52.028;5.526;2022-07-12T00:03:18;23.00;56.60
40289;DHT22;28991;52.028;5.526;2022-07-12T00:05:43;23.00;56.60
40289;DHT22;28991;52.028;5.526;2022-07-12T00:08:09;23.10;56.60
40289;DHT22;28991;52.028;5.526;2022-07-12T00:10:34;23.10;56.60
40289;DHT22;28991;52.028;5.526;2022-07-12T00:13:01;23.00;56.60
40289;DHT22;28991;52.028;5.526;2022-07-12T00:15:26;23.00;56.60
40289;DHT22;28991;52.028;5.526;2022-07-12T00:17:52;23.00;56.60
40289;DHT22;28991;52.028;5.526;2022-07-12T00:20:17;23.00;56.60
40289;DHT22;28991;52.028;5.526;2022-07-12T00:22:43;23.00;56.60
40289;DHT22;28991;52.028;5.526;2022-07-12T00:25:09;23.00;56.60
40289;DHT22;28991;52.028;5.526;2022-07-12T00:27:34;23.00;56.60
40289;DHT22;28991;52.028;5.526;2022-07-12T00:30:00;23.00;56.60
40289;DHT22;28991;52.028;5.526;2022-07-12T00:32:25;23.00;56.60
40289;DHT22;28991;52.028;5.526;2022-07-12T00:34:51;23.00;56.60
40289;DHT22;28991;52.028;5.526;2022-07-12T00:37:16;22.90;56.60
40289;DHT22;28991;52.028;5.526;2022-07-12T00:39:42;23.00;56.60
40289;DHT22;28991;52.028;5.526;2022-07-12T00:42:07;23.00;56.60
40289;DHT22;28991;52.028;5.526;2022-07-12T00:44:33;23.00;56.60
40289;DHT22;28991;52.028;5.526;2022-07-12T00:47:00;23.00;56.60
40289;DHT22;28991;52.028;5.526;2022-07-12T00:49:25;23.00;56.60
40289;DHT22;28991;52.028;5.526;2022-07-12T00:51:51;23.10;56.70
40289;DHT22;28991;52.028;5.526;2022-07-12T00:54:19;23.00;56.60
40289;DHT22;28991;52.028;5.526;2022-07-12T00:56:45;23.00;56.60
40289;DHT22;28991;52.028;5.526;2022-07-12T00:59:11;23.40;56.80
40289;DHT22;28991;52.028;5.526;2022-07-12T01:01:38;23.00;56.60
40289;DHT22;28991;52.028;5.526;2022-07-12T01:04:04;23.00;56.60
40289;DHT22;28991;52.028;5.526;2022-07-12T01:06:31;23.00;56.70
40289;DHT22;28991;52.028;5.526;2022-07-12T01:08:57;23.00;56.70
40289;DHT22;28991;52.028;5.526;2022-07-12T01:11:26;23.00;56.70
40289;DHT22;28991;52.028;5.526;2022-07-12T01:13:52;23.00;56.70
40289;DHT22;28991;52.028;5.526;2022-07-12T01:16:20;23.30;56.80
40289;DHT22;28991;52.028;5.526;2022-07-12T01:18:46;23.00;56.70
40289;DHT22;28991;52.028;5.526;2022-07-12T01:21:18;23.10;56.70
40289;DHT22;28991;52.028;5.526;2022-07-12T01:23:45;23.00;56.70
40289;DHT22;28991;52.028;5.526;2022-07-12T01:26:11;23.00;56.70
40289;DHT22;28991;52.028;5.526;2022-07-12T01:28:38;23.00;56.70
40289;DHT22;28991;52.028;5.526;2022-07-12T01:31:04;23.10;56.70
40289;DHT22;28991;52.028;5.526;2022-07-12T01:33:30;23.00;56.70
40289;DHT22;28991;52.028;5.526;2022-07-12T01:35:56;23.20;56.80
40289;DHT22;28991;52.028;5.526;2022-07-12T01:38:22;23.00;56.70
40289;DHT22;28991;52.028;5.526;2022-07-12T01:40:48;23.00;56.70
40289;DHT22;28991;52.028;5.526;2022-07-12T01:43:14;23.00;56.70
40289;DHT22;28991;52.028;5.526;2022-07-12T01:45:40;23.00;56.70
40289;DHT22;28991;52.028;5.526;2022-07-12T01:48:07;23.00;56.70
40289;DHT22;28991;52.028;5.526;2022-07-12T01:50:32;23.00;56.70
40289;DHT22;28991;52.028;5.526;2022-07-12T01:52:58;23.00;56.70
40289;DHT22;28991;52.028;5.526;2022-07-12T01:55:25;23.00;56.70
40289;DHT22;28991;52.028;5.526;2022-07-12T01:57:51;23.00;56.70
40289;DHT22;28991;52.028;5.526;2022-07-12T02:00:17;23.00;56.70
40289;DHT22;28991;52.028;5.526;2022-07-12T02:02:45;23.00;56.70
40289;DHT22;28991;52.028;5.526;2022-07-12T02:05:11;23.00;56.70
40289;DHT22;28991;52.028;5.526;2022-07-12T02:07:36;23.00;56.70
40289;DHT22;28991;52.028;5.526;2022-07-12T02:10:05;23.20;56.80
40289;DHT22;28991;52.028;5.526;2022-07-12T02:12:31;23.00;56.70
40289;DHT22;28991;52.028;5.526;2022-07-12T02:14:56;23.10;56.80
40289;DHT22;28991;52.028;5.526;2022-07-12T02:17:22;23.00;56.70
40289;DHT22;28991;52.028;5.526;2022-07-12T02:19:48;23.00;56.70
40289;DHT22;28991;52.028;5.526;2022-07-12T02:22:13;23.00;56.70
40289;DHT22;28991;52.028;5.526;2022-07-12T02:24:39;23.00;56.70
40289;DHT22;28991;52.028;5.526;2022-07-12T02:27:05;23.00;56.70
40289;DHT22;28991;52.028;5.526;2022-07-12T02:29:31;23.00;56.70
40289;DHT22;28991;52.028;5.526;2022-07-12T02:31:57;23.00;56.70
40289;DHT22;28991;52.028;5.526;2022-07-12T02:34:23;23.00;56.70
40289;DHT22;28991;52.028;5.526;2022-07-12T02:36:48;23.00;56.70
40289;DHT22;28991;52.028;5.526;2022-07-12T02:39:14;23.00;56.80
40289;DHT22;28991;52.028;5.526;2022-07-12T02:41:39;23.00;56.70
40289;DHT22;28991;52.028;5.526;2022-07-12T02:44:05;23.00;56.70
40289;DHT22;28991;52.028;5.526;2022-07-12T02:46:30;23.00;56.70
40289;DHT22;28991;52.028;5.526;2022-07-12T02:48:56;23.00;56.70
40289;DHT22;28991;52.028;5.526;2022-07-12T02:51:23;23.00;56.70
40289;DHT22;28991;52.028;5.526;2022-07-12T02:53:48;23.00;56.80
40289;DHT22;28991;52.028;5.526;2022-07-12T02:56:14;23.00;56.80
40289;DHT22;28991;52.028;5.526;2022-07-12T02:58:40;23.00;56.70
40289;DHT22;28991;52.028;5.526;2022-07-12T03:01:06;23.00;56.70
40289;DHT22;28991;52.028;5.526;2022-07-12T03:03:31;23.00;56.80
40289;DHT22;28991;52.028;5.526;2022-07-12T03:05:57;23.00;57.30
40289;DHT22;28991;52.028;5.526;2022-07-12T03:08:23;23.00;56.80
40289;DHT22;28991;52.028;5.526;2022-07-12T03:10:49;23.00;56.80
40289;DHT22;28991;52.028;5.526;2022-07-12T03:13:14;23.00;56.80
40289;DHT22;28991;52.028;5.526;2022-07-12T03:15:40;23.00;56.80
40289;DHT22;28991;52.028;5.526;2022-07-12T03:18:06;23.00;56.70
40289;DHT22;28991;52.028;5.526;2022-07-12T03:20:31;23.00;56.70
40289;DHT22;28991;52.028;5.526;2022-07-12T03:22:57;23.00;56.80
40289;DHT22;28991;52.028;5.526;2022-07-12T03:25:23;22.90;56.70
40289;DHT22;28991;52.028;5.526;2022-07-12T03:27:49;23.00;56.70
40289;DHT22;28991;52.028;5.526;2022-07-12T03:30:15;22.90;56.70
40289;DHT22;28991;52.028;5.526;2022-07-12T03:32:41;23.00;56.80
40289;DHT22;28991;52.028;5.526;2022-07-12T03:35:07;23.00;56.70
40289;DHT22;28991;52.028;5.526;2022-07-12T03:37:48;23.00;56.70
40289;DHT22;28991;52.028;5.526;2022-07-12T03:40:15;22.90;56.70
40289;DHT22;28991;52.028;5.526;2022-07-12T03:42:42;23.00;56.70
40289;DHT22;28991;52.028;5.526;2022-07-12T03:45:09;22.90;56.70
40289;DHT22;28991;52.028;5.526;2022-07-12T03:47:34;23.00;56.70
40289;DHT22;28991;52.028;5.526;2022-07-12T03:50:04;23.00;56.70
40289;DHT22;28991;52.028;5.526;2022-07-12T03:52:30;23.00;56.70
40289;DHT22;28991;52.028;5.526;2022-07-12T03:54:57;22.90;56.70
40289;DHT22;28991;52.028;5.526;2022-07-12T03:57:22;23.00;56.70
40289;DHT22;28991;52.028;5.526;2022-07-12T03:59:49;23.00;56.70
40289;DHT22;28991;52.028;5.526;2022-07-12T04:02:15;23.00;56.70
40289;DHT22;28991;52.028;5.526;2022-07-12T04:04:41;23.00;56.70
40289;DHT22;28991;52.028;5.526;2022-07-12T04:07:07;23.00;57.30
40289;DHT22;28991;52.028;5.526;2022-07-12T04:09:33;23.20;56.80
40289;DHT22;28991;52.028;5.526;2022-07-12T04:11:58;23.00;56.70
40289;DHT22;28991;52.028;5.526;2022-07-12T04:14:24;23.00;56.70
40289;DHT22;28991;52.028;5.526;2022-07-12T04:16:49;23.00;56.70
40289;DHT22;28991;52.028;5.526;2022-07-12T04:19:15;23.00;56.70
40289;DHT22;28991;52.028;5.526;2022-07-12T04:21:40;23.00;56.70
40289;DHT22;28991;52.028;5.526;2022-07-12T04:24:06;22.90;57.20
40289;DHT22;28991;52.028;5.526;2022-07-12T04:26:32;23.00;56.70
40289;DHT22;28991;52.028;5.526;2022-07-12T04:28:57;22.90;56.70
40289;DHT22;28991;52.028;5.526;2022-07-12T04:31:24;23.00;56.70
40289;DHT22;28991;52.028;5.526;2022-07-12T04:33:50;23.00;56.70
40289;DHT22;28991;52.028;5.526;2022-07-12T04:36:16;23.00;56.70
40289;DHT22;28991;52.028;5.526;2022-07-12T04:38:41;23.00;56.70
40289;DHT22;28991;52.028;5.526;2022-07-12T04:41:07;22.90;56.70
40289;DHT22;28991;52.028;5.526;2022-07-12T04:43:32;23.00;56.70
40289;DHT22;28991;52.028;5.526;2022-07-12T04:46:10;23.00;56.70
40289;DHT22;28991;52.028;5.526;2022-07-12T04:48:36;23.00;56.70
40289;DHT22;28991;52.028;5.526;2022-07-12T04:51:03;22.90;56.70
40289;DHT22;28991;52.028;5.526;2022-07-12T04:53:29;23.00;56.70
40289;DHT22;28991;52.028;5.526;2022-07-12T04:55:55;22.80;56.60
40289;DHT22;28991;52.028;5.526;2022-07-12T04:58:22;23.00;56.70
40289;DHT22;28991;52.028;5.526;2022-07-12T05:00:48;23.00;56.70
40289;DHT22;28991;52.028;5.526;2022-07-12T05:03:13;23.00;57.20
40289;DHT22;28991;52.028;5.526;2022-07-12T05:05:39;23.00;56.70
40289;DHT22;28991;52.028;5.526;2022-07-12T05:08:04;23.00;56.70
40289;DHT22;28991;52.028;5.526;2022-07-12T05:10:30;23.00;56.70
40289;DHT22;28991;52.028;5.526;2022-07-12T05:12:55;23.00;56.70
40289;DHT22;28991;52.028;5.526;2022-07-12T05:15:21;22.90;56.60
40289;DHT22;28991;52.028;5.526;2022-07-12T05:17:47;23.00;56.70
40289;DHT22;28991;52.028;5.526;2022-07-12T05:20:13;23.00;56.60
40289;DHT22;28991;52.028;5.526;2022-07-12T05:22:38;23.00;56.60
40289;DHT22;28991;52.028;5.526;2022-07-12T05:25:06;23.00;56.60
40289;DHT22;28991;52.028;5.526;2022-07-12T05:27:34;23.00;56.60
40289;DHT22;28991;52.028;5.526;2022-07-12T05:29:59;23.00;56.60
40289;DHT22;28991;52.028;5.526;2022-07-12T05:32:25;23.00;56.60
40289;DHT22;28991;52.028;5.526;2022-07-12T05:34:50;23.00;56.60
40289;DHT22;28991;52.028;5.526;2022-07-12T05:37:16;23.00;56.60
40289;DHT22;28991;52.028;5.526;2022-07-12T05:39:42;23.00;56.60
40289;DHT22;28991;52.028;5.526;2022-07-12T05:42:07;23.00;56.60
40289;DHT22;28991;52.028;5.526;2022-07-12T05:44:33;23.00;56.60
40289;DHT22;28991;52.028;5.526;2022-07-12T05:46:58;23.00;56.60
40289;DHT22;28991;52.028;5.526;2022-07-12T05:49:24;22.90;56.60
40289;DHT22;28991;52.028;5.526;2022-07-12T05:51:49;23.00;56.60
40289;DHT22;28991;52.028;5.526;2022-07-12T05:54:33;23.00;56.60
40289;DHT22;28991;52.028;5.526;2022-07-12T05:56:59;23.00;56.60
40289;DHT22;28991;52.028;5.526;2022-07-12T05:59:24;23.00;56.60
40289;DHT22;28991;52.028;5.526;2022-07-12T06:01:50;22.90;56.50
40289;DHT22;28991;52.028;5.526;2022-07-12T06:04:15;23.00;56.60
40289;DHT22;28991;52.028;5.526;2022-07-12T06:06:41;22.90;56.50
40289;DHT22;28991;52.028;5.526;2022-07-12T06:09:07;23.00;56.50
40289;DHT22;28991;52.028;5.526;2022-07-12T06:11:32;23.00;56.50
40289;DHT22;28991;52.028;5.526;2022-07-12T06:14:01;23.00;56.50
40289;DHT22;28991;52.028;5.526;2022-07-12T06:16:26;23.00;56.50
40289;DHT22;28991;52.028;5.526;2022-07-12T06:18:52;23.00;56.50
40289;DHT22;28991;52.028;5.526;2022-07-12T06:21:17;23.00;56.50
40289;DHT22;28991;52.028;5.526;2022-07-12T06:23:43;23.00;56.50
40289;DHT22;28991;52.028;5.526;2022-07-12T06:26:08;23.00;56.50
40289;DHT22;28991;52.028;5.526;2022-07-12T06:28:34;23.00;56.50
40289;DHT22;28991;52.028;5.526;2022-07-12T06:31:01;23.00;56.50
40289;DHT22;28991;52.028;5.526;2022-07-12T06:33:27;23.00;56.50
40289;DHT22;28991;52.028;5.526;2022-07-12T06:35:52;23.00;56.50
40289;DHT22;28991;52.028;5.526;2022-07-12T06:38:18;22.90;56.40
40289;DHT22;28991;52.028;5.526;2022-07-12T06:40:43;23.50;56.70
40289;DHT22;28991;52.028;5.526;2022-07-12T06:43:10;23.00;56.40
40289;DHT22;28991;52.028;5.526;2022-07-12T06:45:36;23.00;56.40
40289;DHT22;28991;52.028;5.526;2022-07-12T06:48:01;23.00;56.40
40289;DHT22;28991;52.028;5.526;2022-07-12T06:50:27;23.00;56.40
40289;DHT22;28991;52.028;5.526;2022-07-12T06:52:53;23.00;56.40
40289;DHT22;28991;52.028;5.526;2022-07-12T06:55:18;23.00;56.40
40289;DHT22;28991;52.028;5.526;2022-07-12T06:57:44;23.00;56.40
40289;DHT22;28991;52.028;5.526;2022-07-12T07:00:10;23.00;56.40
40289;DHT22;28991;52.028;5.526;2022-07-12T07:02:37;23.00;56.40
40289;DHT22;28991;52.028;5.526;2022-07-12T07:05:03;23.00;56.40
40289;DHT22;28991;52.028;5.526;2022-07-12T07:07:28;23.00;56.40
40289;DHT22;28991;52.028;5.526;2022-07-12T07:09:54;23.00;56.40
40289;DHT22;28991;52.028;5.526;2022-07-12T07:12:19;23.00;56.30
40289;DHT22;28991;52.028;5.526;2022-07-12T07:14:45;23.00;56.30
40289;DHT22;28991;52.028;5.526;2022-07-12T07:17:10;22.90;56.30
40289;DHT22;28991;52.028;5.526;2022-07-12T07:19:37;23.40;56.50
40289;DHT22;28991;52.028;5.526;2022-07-12T07:22:02;23.00;56.30
40289;DHT22;28991;52.028;5.526;2022-07-12T07:24:28;23.00;56.30
40289;DHT22;28991;52.028;5.526;2022-07-12T07:26:53;23.00;56.30
40289;DHT22;28991;52.028;5.526;2022-07-12T07:29:19;23.00;56.20
40289;DHT22;28991;52.028;5.526;2022-07-12T07:32:03;23.00;56.20
40289;DHT22;28991;52.028;5.526;2022-07-12T07:34:29;23.00;56.30
40289;DHT22;28991;52.028;5.526;2022-07-12T07:36:54;23.00;56.20
40289;DHT22;28991;52.028;5.526;2022-07-12T07:39:20;23.00;56.20
40289;DHT22;28991;52.028;5.526;2022-07-12T07:41:46;23.10;56.30
40289;DHT22;28991;52.028;5.526;2022-07-12T07:44:11;22.90;56.20
40289;DHT22;28991;52.028;5.526;2022-07-12T07:46:37;23.10;56.20
40289;DHT22;28991;52.028;5.526;2022-07-12T07:49:03;23.10;56.30
40289;DHT22;28991;52.028;5.526;2022-07-12T07:51:29;23.00;56.20
40289;DHT22;28991;52.028;5.526;2022-07-12T07:53:54;23.10;56.20
40289;DHT22;28991;52.028;5.526;2022-07-12T07:56:20;22.90;56.10
40289;DHT22;28991;52.028;5.526;2022-07-12T07:58:45;23.10;56.20
40289;DHT22;28991;52.028;5.526;2022-07-12T08:01:11;23.00;56.10
40289;DHT22;28991;52.028;5.526;2022-07-12T08:03:36;23.10;56.20
40289;DHT22;28991;52.028;5.526;2022-07-12T08:06:02;23.00;56.20
40289;DHT22;28991;52.028;5.526;2022-07-12T08:08:28;23.10;56.20
40289;DHT22;28991;52.028;5.526;2022-07-12T08:10:56;23.20;56.20
40289;DHT22;28991;52.028;5.526;2022-07-12T08:13:22;23.10;56.20
40289;DHT22;28991;52.028;5.526;2022-07-12T08:15:48;23.10;56.20
40289;DHT22;28991;52.028;5.526;2022-07-12T08:18:13;23.10;56.20
40289;DHT22;28991;52.028;5.526;2022-07-12T08:20:39;23.10;56.20
40289;DHT22;28991;52.028;5.526;2022-07-12T08:23:05;23.30;56.30
40289;DHT22;28991;52.028;5.526;2022-07-12T08:25:30;23.50;56.40
40289;DHT22;28991;52.028;5.526;2022-07-12T08:27:56;23.10;56.10
40289;DHT22;28991;52.028;5.526;2022-07-12T08:30:22;23.10;56.10
40289;DHT22;28991;52.028;5.526;2022-07-12T08:32:47;23.10;56.10
40289;DHT22;28991;52.028;5.526;2022-07-12T08:35:13;23.10;56.10
40289;DHT22;28991;52.028;5.526;2022-07-12T08:37:40;23.10;56.10
40289;DHT22;28991;52.028;5.526;2022-07-12T08:40:06;23.10;56.10
40289;DHT22;28991;52.028;5.526;2022-07-12T08:42:32;23.10;56.10
40289;DHT22;28991;52.028;5.526;2022-07-12T08:44:59;23.10;56.10
40289;DHT22;28991;52.028;5.526;2022-07-12T08:47:24;23.10;56.10
40289;DHT22;28991;52.028;5.526;2022-07-12T08:52:40;23.10;56.10
40289;DHT22;28991;52.028;5.526;2022-07-12T08:55:17;23.10;56.10
40289;DHT22;28991;52.028;5.526;2022-07-12T08:57:43;23.10;56.10
40289;DHT22;28991;52.028;5.526;2022-07-12T09:00:09;23.20;56.10
40289;DHT22;28991;52.028;5.526;2022-07-12T09:05:11;23.10;56.10
40289;DHT22;28991;52.028;5.526;2022-07-12T09:07:37;23.10;56.10
40289;DHT22;28991;52.028;5.526;2022-07-12T09:10:04;23.10;56.10
40289;DHT22;28991;52.028;5.526;2022-07-12T09:12:30;23.10;56.10
40289;DHT22;28991;52.028;5.526;2022-07-12T09:15:20;22.90;56.00
40289;DHT22;28991;52.028;5.526;2022-07-12T09:17:53;23.10;56.10
40289;DHT22;28991;52.028;5.526;2022-07-12T09:20:20;23.10;56.10
40289;DHT22;28991;52.028;5.526;2022-07-12T09:22:59;23.10;56.10
40289;DHT22;28991;52.028;5.526;2022-07-12T09:25:25;23.10;56.10
40289;DHT22;28991;52.028;5.526;2022-07-12T09:27:55;23.10;56.10
40289;DHT22;28991;52.028;5.526;2022-07-12T09:30:25;23.20;56.20
40289;DHT22;28991;52.028;5.526;2022-07-12T09:33:04;23.20;56.20
40289;DHT22;28991;52.028;5.526;2022-07-12T09:36:06;23.10;56.20
40289;DHT22;28991;52.028;5.526;2022-07-12T09:38:39;23.10;56.20
40289;DHT22;28991;52.028;5.526;2022-07-12T09:41:06;23.50;56.40
40289;DHT22;28991;52.028;5.526;2022-07-12T09:43:33;23.20;56.20
40289;DHT22;28991;52.028;5.526;2022-07-12T09:45:59;23.20;56.20
40289;DHT22;28991;52.028;5.526;2022-07-12T09:48:26;23.20;56.20
40289;DHT22;28991;52.028;5.526;2022-07-12T09:50:55;23.10;56.10
40289;DHT22;28991;52.028;5.526;2022-07-12T09:53:32;23.20;56.20
40289;DHT22;28991;52.028;5.526;2022-07-12T09:56:06;23.20;56.20
40289;DHT22;28991;52.028;5.526;2022-07-12T09:58:54;23.20;56.20
40289;DHT22;28991;52.028;5.526;2022-07-12T10:01:21;23.20;56.20
40289;DHT22;28991;52.028;5.526;2022-07-12T10:03:48;23.20;56.20
40289;DHT22;28991;52.028;5.526;2022-07-12T10:06:24;23.20;56.20
40289;DHT22;28991;52.028;5.526;2022-07-12T10:08:51;23.20;56.20
40289;DHT22;28991;52.028;5.526;2022-07-12T10:11:17;23.20;56.20
40289;DHT22;28991;52.028;5.526;2022-07-12T10:13:43;23.20;56.20
40289;DHT22;28991;52.028;5.526;2022-07-12T10:16:10;23.20;56.20
40289;DHT22;28991;52.028;5.526;2022-07-12T10:18:38;23.20;56.20
40289;DHT22;28991;52.028;5.526;2022-07-12T10:21:18;23.20;56.20
40289;DHT22;28991;52.028;5.526;2022-07-12T10:23:44;23.20;56.20
40289;DHT22;28991;52.028;5.526;2022-07-12T10:29:05;23.20;56.20
40289;DHT22;28991;52.028;5.526;2022-07-12T10:31:35;23.20;56.20
40289;DHT22;28991;52.028;5.526;2022-07-12T10:39:20;23.10;56.20
40289;DHT22;28991;52.028;5.526;2022-07-12T10:42:12;23.20;56.20
40289;DHT22;28991;52.028;5.526;2022-07-12T10:44:40;23.20;56.30
40289;DHT22;28991;52.028;5.526;2022-07-12T10:47:07;23.10;56.20
40289;DHT22;28991;52.028;5.526;2022-07-12T10:49:35;23.20;56.20
40289;DHT22;28991;52.028;5.526;2022-07-12T10:54:41;23.70;56.50
40289;DHT22;28991;52.028;5.526;2022-07-12T10:57:07;23.30;56.30
40289;DHT22;28991;52.028;5.526;2022-07-12T10:59:35;23.20;56.20
40289;DHT22;28991;52.028;5.526;2022-07-12T11:02:01;23.30;56.30
40289;DHT22;28991;52.028;5.526;2022-07-12T11:04:27;23.30;56.30
40289;DHT22;28991;52.028;5.526;2022-07-12T11:06:54;23.30;56.30
40289;DHT22;28991;52.028;5.526;2022-07-12T11:09:21;23.30;56.30
40289;DHT22;28991;52.028;5.526;2022-07-12T11:11:48;23.30;56.30
40289;DHT22;28991;52.028;5.526;2022-07-12T11:16:52;23.40;56.40
40289;DHT22;28991;52.028;5.526;2022-07-12T11:19:26;23.30;56.40
40289;DHT22;28991;52.028;5.526;2022-07-12T11:21:52;23.30;56.40
40289;DHT22;28991;52.028;5.526;2022-07-12T11:24:25;23.30;56.40
40289;DHT22;28991;52.028;5.526;2022-07-12T11:26:51;23.30;56.40
40289;DHT22;28991;52.028;5.526;2022-07-12T11:29:17;23.10;56.30
40289;DHT22;28991;52.028;5.526;2022-07-12T11:31:44;23.30;56.40
40289;DHT22;28991;52.028;5.526;2022-07-12T11:34:29;23.30;56.40
40289;DHT22;28991;52.028;5.526;2022-07-12T11:36:58;23.30;56.40
40289;DHT22;28991;52.028;5.526;2022-07-12T11:39:37;23.30;56.40
40289;DHT22;28991;52.028;5.526;2022-07-12T11:42:05;23.30;56.40
40289;DHT22;28991;52.028;5.526;2022-07-12T11:44:51;23.30;56.40
40289;DHT22;28991;52.028;5.526;2022-07-12T11:47:18;23.50;56.50
40289;DHT22;28991;52.028;5.526;2022-07-12T11:49:53;23.30;56.40
40289;DHT22;28991;52.028;5.526;2022-07-12T11:52:21;23.30;56.40
40289;DHT22;28991;52.028;5.526;2022-07-12T11:54:49;23.30;56.40
40289;DHT22;28991;52.028;5.526;2022-07-12T11:57:19;23.30;56.40
40289;DHT22;28991;52.028;5.526;2022-07-12T11:59:45;23.30;56.40
40289;DHT22;28991;52.028;5.526;2022-07-12T12:02:13;23.30;56.40
40289;DHT22;28991;52.028;5.526;2022-07-12T12:04:49;23.30;56.40
40289;DHT22;28991;52.028;5.526;2022-07-12T12:07:16;23.30;56.40
40289;DHT22;28991;52.028;5.526;2022-07-12T12:10:02;23.30;56.40
40289;DHT22;28991;52.028;5.526;2022-07-12T12:12:35;23.30;56.40
40289;DHT22;28991;52.028;5.526;2022-07-12T12:15:07;23.30;56.40
40289;DHT22;28991;52.028;5.526;2022-07-12T12:17:34;23.30;56.40
40289;DHT22;28991;52.028;5.526;2022-07-12T12:20:11;23.30;56.40
40289;DHT22;28991;52.028;5.526;2022-07-12T12:22:38;23.40;56.40
40289;DHT22;28991;52.028;5.526;2022-07-12T12:25:05;22.50;56.00
40289;DHT22;28991;52.028;5.526;2022-07-12T12:27:30;23.30;56.40
40289;DHT22;28991;52.028;5.526;2022-07-12T12:30:07;23.40;56.60
40289;DHT22;28991;52.028;5.526;2022-07-12T12:35:19;23.40;56.50
40289;DHT22;28991;52.028;5.526;2022-07-12T12:37:56;23.40;56.40
40289;DHT22;28991;52.028;5.526;2022-07-12T12:40:24;23.30;56.50
40289;DHT22;28991;52.028;5.526;2022-07-12T12:42:50;23.40;56.50
40289;DHT22;28991;52.028;5.526;2022-07-12T12:45:24;23.40;56.40
40289;DHT22;28991;52.028;5.526;2022-07-12T12:48:04;23.40;56.40
40289;DHT22;28991;52.028;5.526;2022-07-12T12:50:47;23.40;57.00
40289;DHT22;28991;52.028;5.526;2022-07-12T12:53:24;23.30;56.40
40289;DHT22;28991;52.028;5.526;2022-07-12T12:55:53;23.40;56.50
40289;DHT22;28991;52.028;5.526;2022-07-12T12:58:20;23.80;56.70
40289;DHT22;28991;52.028;5.526;2022-07-12T13:00:48;23.40;56.50
40289;DHT22;28991;52.028;5.526;2022-07-12T13:03:15;23.40;57.00
40289;DHT22;28991;52.028;5.526;2022-07-12T13:05:42;23.40;56.50
40289;DHT22;28991;52.028;5.526;2022-07-12T13:08:11;23.40;56.50
40289;DHT22;28991;52.028;5.526;2022-07-12T13:10:38;23.40;56.50
40289;DHT22;28991;52.028;5.526;2022-07-12T13:13:08;23.50;56.50
40289;DHT22;28991;52.028;5.526;2022-07-12T13:15:34;24.30;56.90
40289;DHT22;28991;52.028;5.526;2022-07-12T13:18:00;23.40;56.50
40289;DHT22;28991;52.028;5.526;2022-07-12T13:20:28;23.40;56.50
40289;DHT22;28991;52.028;5.526;2022-07-12T13:22:54;23.60;56.60
40289;DHT22;28991;52.028;5.526;2022-07-12T13:25:20;23.40;56.50
40289;DHT22;28991;52.028;5.526;2022-07-12T13:27:46;23.40;56.50
40289;DHT22;28991;52.028;5.526;2022-07-12T13:30:13;23.40;56.50
40289;DHT22;28991;52.028;5.526;2022-07-12T13:32:39;23.40;56.50
40289;DHT22;28991;52.028;5.526;2022-07-12T13:35:06;23.40;56.50
40289;DHT22;28991;52.028;5.526;2022-07-12T13:37:33;23.40;56.40
40289;DHT22;28991;52.028;5.526;2022-07-12T13:39:59;23.40;56.50
40289;DHT22;28991;52.028;5.526;2022-07-12T13:42:47;23.50;56.50
40289;DHT22;28991;52.028;5.526;2022-07-12T13:45:15;23.80;56.70
40289;DHT22;28991;52.028;5.526;2022-07-12T13:47:42;23.50;56.50
40289;DHT22;28991;52.028;5.526;2022-07-12T13:50:09;23.40;56.50
40289;DHT22;28991;52.028;5.526;2022-07-12T13:52:35;23.40;56.50
40289;DHT22;28991;52.028;5.526;2022-07-12T13:55:01;23.50;56.50
40289;DHT22;28991;52.028;5.526;2022-07-12T13:57:27;23.40;56.40
40289;DHT22;28991;52.028;5.526;2022-07-12T13:59:53;23.50;56.50
40289;DHT22;28991;52.028;5.526;2022-07-12T14:02:19;23.50;56.50
40289;DHT22;28991;52.028;5.526;2022-07-12T14:04:44;23.50;56.50
40289;DHT22;28991;52.028;5.526;2022-07-12T14:07:10;23.60;56.60
40289;DHT22;28991;52.028;5.526;2022-07-12T14:09:36;23.50;56.50
40289;DHT22;28991;52.028;5.526;2022-07-12T14:12:02;23.50;56.50
40289;DHT22;28991;52.028;5.526;2022-07-12T14:14:29;23.50;56.50
40289;DHT22;28991;52.028;5.526;2022-07-12T14:17:13;23.70;56.60
40289;DHT22;28991;52.028;5.526;2022-07-12T14:19:39;23.50;56.50
40289;DHT22;28991;52.028;5.526;2022-07-12T14:22:04;24.40;56.90
40289;DHT22;28991;52.028;5.526;2022-07-12T14:24:30;23.50;56.50
40289;DHT22;28991;52.028;5.526;2022-07-12T14:26:56;23.50;56.50
40289;DHT22;28991;52.028;5.526;2022-07-12T14:29:21;23.50;56.50
40289;DHT22;28991;52.028;5.526;2022-07-12T14:31:47;23.50;56.50
40289;DHT22;28991;52.028;5.526;2022-07-12T14:34:12;23.50;56.50
40289;DHT22;28991;52.028;5.526;2022-07-12T14:36:38;23.50;56.50
40289;DHT22;28991;52.028;5.526;2022-07-12T14:39:03;23.50;56.50
40289;DHT22;28991;52.028;5.526;2022-07-12T14:41:29;23.50;56.50
40289;DHT22;28991;52.028;5.526;2022-07-12T14:43:55;23.50;56.50
40289;DHT22;28991;52.028;5.526;2022-07-12T14:46:21;23.50;56.50
40289;DHT22;28991;52.028;5.526;2022-07-12T14:48:47;23.50;56.50
40289;DHT22;28991;52.028;5.526;2022-07-12T14:51:12;23.50;56.50
40289;DHT22;28991;52.028;5.526;2022-07-12T14:53:38;23.50;56.50
40289;DHT22;28991;52.028;5.526;2022-07-12T14:56:04;23.70;56.60
40289;DHT22;28991;52.028;5.526;2022-07-12T14:58:29;23.50;56.50
40289;DHT22;28991;52.028;5.526;2022-07-12T15:00:58;23.30;56.40
40289;DHT22;28991;52.028;5.526;2022-07-12T15:03:24;23.50;56.40
40289;DHT22;28991;52.028;5.526;2022-07-12T15:05:50;23.60;56.60
40289;DHT22;28991;52.028;5.526;2022-07-12T15:08:16;23.50;56.40
40289;DHT22;28991;52.028;5.526;2022-07-12T15:10:41;23.50;56.40
40289;DHT22;28991;52.028;5.526;2022-07-12T15:13:07;23.50;56.40
40289;DHT22;28991;52.028;5.526;2022-07-12T15:15:33;23.50;56.40
40289;DHT22;28991;52.028;5.526;2022-07-12T15:17:59;23.50;56.40
40289;DHT22;28991;52.028;5.526;2022-07-12T15:20:25;23.70;56.50
40289;DHT22;28991;52.028;5.526;2022-07-12T15:22:50;23.50;56.40
40289;DHT22;28991;52.028;5.526;2022-07-12T15:25:16;23.60;56.40
40289;DHT22;28991;52.028;5.526;2022-07-12T15:27:41;23.60;56.40
40289;DHT22;28991;52.028;5.526;2022-07-12T15:30:07;23.70;56.50
40289;DHT22;28991;52.028;5.526;2022-07-12T15:32:33;23.60;56.40
40289;DHT22;28991;52.028;5.526;2022-07-12T15:34:59;23.60;56.40
40289;DHT22;28991;52.028;5.526;2022-07-12T15:37:25;23.50;56.40
40289;DHT22;28991;52.028;5.526;2022-07-12T15:39:50;23.60;56.40
40289;DHT22;28991;52.028;5.526;2022-07-12T15:42:16;23.60;56.40
40289;DHT22;28991;52.028;5.526;2022-07-12T15:44:41;23.60;56.40
40289;DHT22;28991;52.028;5.526;2022-07-12T15:47:08;23.60;56.40
40289;DHT22;28991;52.028;5.526;2022-07-12T15:49:37;24.00;56.60
40289;DHT22;28991;52.028;5.526;2022-07-12T15:52:03;23.60;56.40